Mexican Cut, RMBL, Colorado Weather observations

Data are for 10 minute period ending at time listed.
 Day   Time   Solar   Ave.   Ave.  Ave.  Vector  Max.   Baro.   Total    
  of    of     Rad.   Air    Rel.  Wind   Wind   Wind  Press.  Precip.   
Year   Day            Temp.  Hum.  Speed  Dir.   Gust                    
2016   (MST)  Kw/m2    F      %     mph   deg.    mph    mb.     in.     
-------------------------------------------------------------------------
 149   11:30   1.26   40.6    54    2.9    66     6.7   675.7    0.00 
 149   11:40   1.01   43.0    52    1.2    38     5.0   675.8    0.00 
 149   11:50   0.89   43.2    49    1.9    30     5.0   675.8    0.00 
 149   12:00   1.04   43.8    48    2.4   141     6.7   675.8    0.00 
 149   12:10   0.60   42.5    50    1.2   305     5.6   675.8    0.00 
 149   12:20   0.88   43.5    47    2.4   127     6.1   675.8    0.00 
 149   12:30   1.11   44.3    46    2.3   117     7.1   675.7    0.00 
 149   12:40   1.08   43.9    45    2.0    97     7.3   675.7    0.00 
 149   12:50   1.07   46.6    40    1.6   168     7.2   675.8    0.00 
 149   13:00   0.75   47.8    34    2.7   149     5.6   675.9    0.00 
 149   13:10   0.67   45.4    38    1.9   110     4.5   675.9    0.00 
 149   13:20   1.03   45.0    40    2.2   277     4.7   675.9    0.00 
 149   13:30   0.84   47.8    34    2.1   202     5.7   675.9    0.00 
 149   13:40   0.64   47.0    36    2.8   169     6.5   675.9    0.00 
 149   13:50   0.64   46.0    39    2.8   151     6.0   676.0    0.00 
 149   14:00   0.46   44.3    43    2.7   172     7.0   676.0    0.00 
 149   14:10   0.47   43.4    44    4.1   198     9.9   676.1    0.00 
 149   14:20   0.74   42.5    44    4.0   187    10.8   676.0    0.00 
 149   14:30   1.04   45.4    38    3.5   240     6.9   675.9    0.00 
 149   14:40   0.94   46.1    36    2.1   130     6.1   675.9    0.00 
 149   14:50   0.96   45.6    34    3.1   119     9.0   676.0    0.00 
 149   15:00   0.92   46.5    34    2.8   206     7.9   676.0    0.00 
 149   15:10   0.87   46.0    37    5.9   180    12.4   676.1    0.00 
 149   15:20   0.84   44.7    40    5.4   193    12.5   676.1    0.00 
 149   15:30   0.82   44.6    37    5.5   192    12.3   676.1    0.00 
 149   15:40   0.79   45.4    35    5.1   187    14.0   676.1    0.00 
 149   15:50   0.75   45.5    34    3.9   185     8.0   676.1    0.00 
 149   16:00   0.74   46.0    34    3.3   156     8.0   676.1    0.00 
 149   16:10   0.70   45.2    35    3.8   150     8.2   676.2    0.00 
 149   16:20   0.27   45.7    34    2.5   190     5.6   676.2    0.00 
 149   16:30   0.13   42.1    39    3.3   257    10.2   676.2    0.00 
 149   16:40   0.14   40.8    44    5.5   274    14.1   676.3    0.00 
 149   16:50   0.18   39.9    50    4.3   298    10.0   676.4    0.00 
 149   17:00   0.64   40.4    53    4.2   336    10.5   676.4    0.00 
 149   17:10   0.29   39.8    56    4.2   324     9.6   676.6    0.00 
 149   17:20   0.36   39.9    55    3.4   309     6.7   676.4    0.00 
 149   17:30   0.36   40.6    53    1.6   278     5.4   676.3    0.00 
 149   17:40   0.32   43.0    47    0.6    17     3.0   676.4    0.00 
 149   17:50   0.27   41.5    50    1.4   208     2.9   676.3    0.00 
 149   18:00   0.04   40.6    52    2.4   210     3.9   676.3    0.00 
 149   18:10   0.08   38.1    57    1.8   206     2.6   676.5    0.00 
 149   18:20   0.06   37.4    59    0.9   209     1.7   676.5    0.00 
 149   18:30   0.04   37.2    59    0.6   211     1.3   676.5    0.00 
 149   18:40   0.03   36.7    59    0.9   210     1.6   676.6    0.00 
 149   18:50   0.03   36.2    61    0.7   246     2.5   676.8    0.00 
 149   19:00   0.03   36.9    58    1.5   251     3.4   676.8    0.00 
 149   19:10   0.03   37.7    57    1.7   253     4.4   677.0    0.00 
 149   19:20   0.01   38.0    57    3.1   280     6.2   677.1    0.00 
 149   19:30   0.00   37.5    58    2.0   272     4.5   677.2    0.00 
 149   19:40   0.00   36.8    60    1.5   260     3.6   677.2    0.00 
 149   19:50   0.00   35.6    63    1.0   217     1.8   677.3    0.00 
 149   20:00   0.00   34.0    66    0.5   202     1.8   677.3    0.00 
 149   20:10   0.00   33.1    66    0.6   204     2.2   677.4    0.00 
 149   20:20   0.00   32.9    69    0.9   227     1.5   677.5    0.00 
 149   20:30   0.00   33.0    69    1.6   213     2.9   677.5    0.00 
 149   20:40   0.00   32.6    69    1.8   201     2.9   677.6    0.00 
 149   20:50   0.00   32.4    70    1.7   199     2.4   677.7    0.00 
 149   21:00   0.00   32.1    71    1.6   210     2.8   677.8    0.00 
 149   21:10   0.00   32.7    69    0.9   230     2.1   677.9    0.00 
 149   21:20   0.00   32.9    65    1.3   201     2.4   677.9    0.00 
 149   21:30   0.00   32.6    65    1.8   194     2.6   677.9    0.00 
 149   21:40   0.00   32.6    64    2.3   194     3.9   678.0    0.00 
 149   21:50   0.00   32.5    63    2.1   195     5.2   678.0    0.00 
 149   22:00   0.00   33.9    60    2.2   207     5.6   678.1    0.00 
 149   22:10   0.00   34.2    59    2.7   193     4.7   678.1    0.00 
 149   22:20   0.00   33.6    61    1.4   188     2.7   678.2    0.00 
 149   22:30   0.00   33.5    60    1.0   212     2.2   678.2    0.00 
 149   22:40   0.00   33.7    60    0.8   218     2.1   678.2    0.00 
 149   22:50   0.00   32.9    62    1.5   202     2.4   678.2    0.00 
 149   23:00   0.00   32.1    64    1.9   192     2.8   678.2    0.00 
 149   23:10   0.00   31.9    65    2.2   194     3.2   678.1    0.00 
 149   23:20   0.00   32.0    65    2.8   181     4.9   678.1    0.00 
 149   23:30   0.00   33.2    61    3.7   195     4.9   678.1    0.00 
 149   23:40   0.00   34.7    58    3.7   198     6.6   678.1    0.00 
 149   23:50   0.00   34.0    60    1.6   193     2.9   678.0    0.00 
 150    0:00   0.00   32.7    63    2.0   181     3.5   678.0    0.00 
 150    0:10   0.00   32.7    63    2.1   180     6.1   677.9    0.00 
 150    0:20   0.00   32.9    62    2.2   195     5.3   677.9    0.00 
 150    0:30   0.00   32.3    64    1.3   205     2.0   677.9    0.00 
 150    0:40   0.00   31.5    66    2.1   212     4.5   678.0    0.00 
 150    0:50   0.00   32.3    64    3.8   192     6.4   678.0    0.00 
 150    1:00   0.00   33.6    63    4.4   186     7.8   678.0    0.00 
 150    1:10   0.00   33.9    63    3.9   181     6.3   677.9    0.00 
 150    1:20   0.00   33.6    62    4.0   190     6.6   677.9    0.00 
 150    1:30   0.00   33.6    62    3.4   194     6.6   677.9    0.00 
 150    1:40   0.00   32.6    64    3.6   196     8.0   677.9    0.00 
 150    1:50   0.00   33.3    62    4.6   194     9.5   677.9    0.00 
 150    2:00   0.00   33.8    61    4.6   189     9.8   678.0    0.00 
 150    2:10   0.00   33.5    63    4.4   195     9.7   678.0    0.00 
 150    2:20   0.00   33.3    64    5.0   191     8.6   678.0    0.00 
 150    2:30   0.00   33.4    65    4.8   182     9.1   677.9    0.00 
 150    2:40   0.00   33.3    65    4.3   181     7.7   677.9    0.00 
 150    2:50   0.00   33.1    64    4.1   190     6.7   677.9    0.00 
 150    3:00   0.00   33.2    63    3.7   181     7.0   677.9    0.00 
 150    3:10   0.00   33.3    62    3.2   177     5.4   677.9    0.00 
 150    3:20   0.00   33.3    63    3.3   174     5.4   677.9    0.00 
 150    3:30   0.00   33.3    64    3.3   186     4.5   678.0    0.00 
 150    3:40   0.00   32.6    66    2.9   191     3.7   678.0    0.00 
 150    3:50   0.00   31.9    67    2.4   187     3.0   678.0    0.00 
 150    4:00   0.00   31.5    68    2.9   191     4.2   678.0    0.00 
 150    4:10   0.00   32.1    67    3.3   182     4.2   678.0    0.00 
 150    4:20   0.00   32.8    65    3.8   181     6.1   678.1    0.00 
 150    4:30   0.00   33.4    63    4.2   171     7.4   678.1    0.00 
 150    4:40   0.00   33.5    64    4.9   169     8.1   678.2    0.00 
 150    4:50   0.00   33.5    66    4.3   168     6.4   678.2    0.00 
 150    5:00   0.01   33.4    66    3.4   176     6.1   678.2    0.00 
 150    5:10   0.02   33.6    65    3.2   176     5.3   678.3    0.00 
 150    5:20   0.03   33.9    65    3.1   178     5.3   678.4    0.00 
 150    5:30   0.07   35.1    64    3.3   159     7.5   678.4    0.00 
 150    5:40   0.09   36.6    59    5.6   154    11.2   678.4    0.00 
 150    5:50   0.13   37.8    57    7.3   150    10.5   678.5    0.00 
 150    6:00   0.16   38.8    54    7.3   147    10.7   678.5    0.00 
 150    6:10   0.22   40.2    52    4.7   150     9.6   678.5    0.00 
 150    6:20   0.25   41.6    49    5.3   149    11.0   678.5    0.00 
 150    6:30   0.28   41.6    49    4.8   146    10.3   678.5    0.00 
 150    6:40   0.33   42.5    47    4.6   151     8.9   678.6    0.00 
 150    6:50   0.37   43.0    46    5.0   155     9.6   678.6    0.00 
 150    7:00   0.41   43.3    46    3.4   147     7.5   678.7    0.00 
 150    7:10   0.45   44.4    44    3.6   163     7.7   678.8    0.00 
 150    7:20   0.49   44.9    43    4.6   170     8.8   678.8    0.00 
 150    7:30   0.52   44.6    43    4.9   157     9.2   678.8    0.00 
 150    7:40   0.56   44.7    41    4.3   138     9.0   678.9    0.00 
 150    7:50   0.58   45.2    38    3.3   145     9.1   679.0    0.00 
 150    8:00   0.63   47.0    35    2.8   138     6.3   679.1    0.00 
 150    8:10   0.67   47.2    33    2.8   153     7.2   679.2    0.00 
 150    8:20   0.71   47.1    31    3.0   165     6.4   679.2    0.00 
 150    8:30   0.74   47.8    29    4.2   170     9.6   679.2    0.00 
 150    8:40   0.75   48.2    32    3.1   142     6.2   679.2    0.00 
 150    8:50   0.77   46.7    38    5.2   144    10.6   679.3    0.00 
 150    9:00   0.84   46.1    38    5.5   151     9.9   679.3    0.00 
 150    9:10   0.88   47.5    32    5.4   162     8.9   679.3    0.00 
 150    9:20   0.90   48.6    31    4.0   160     8.3   679.3    0.00 
 150    9:30   0.90   48.7    31    3.3   167     7.7   679.3    0.00 
 150    9:40   0.85   48.4    30    3.7   199     7.5   679.4    0.00 
 150    9:50   0.84   48.2    29    3.8   189    10.3   679.4    0.00 
 150   10:00   0.92   48.9    28    3.4   185     8.6   679.5    0.00 
 150   10:10   1.02   49.7    26    2.7   176     6.6   679.5    0.00 
 150   10:20   1.02   50.2    26    3.5   178     8.0   679.4    0.00 
 150   10:30   1.04   51.4    25    2.5   161     7.5   679.3    0.00 
 150   10:40   1.08   50.9    25    4.1   146    10.0   679.3    0.00 
 150   10:50   1.10   50.9    24    2.6   200     8.0   679.3    0.00 
 150   11:00   1.11   51.0    24    2.9   181     9.5   679.3    0.00 
 150   11:10   1.12   52.5    23    2.5   170     5.5   679.2    0.00 
 150   11:20   1.12   51.5    24    1.8   123     5.0   679.2    0.00 

Return to Mexican Cut, RMBL, Colorado graphs page.


Western Regional Climate Center,wrcc@dri.edu